createdAt,value
2023-03-19T00:02:15.443Z,100943.28
2023-03-19T00:04:44.407Z,100929.31
2023-03-19T00:07:12.147Z,100943.63
2023-03-19T00:09:39.795Z,100943.63
2023-03-19T00:12:07.542Z,100939.28
2023-03-19T00:14:35.037Z,100939.41
2023-03-19T00:17:03.936Z,100936.78
2023-03-19T00:19:31.492Z,100946.38
2023-03-19T00:21:59.001Z,100933.19
2023-03-19T00:24:26.514Z,100938.34
2023-03-19T00:26:54.367Z,100939.16
2023-03-19T00:29:23.078Z,100933.88
2023-03-19T00:31:50.590Z,100935.56
2023-03-19T00:34:19.441Z,100934.00
2023-03-19T00:36:47.036Z,100936.66
2023-03-19T00:39:14.577Z,100936.66
2023-03-19T00:41:42.364Z,100947.22
2023-03-19T00:44:09.846Z,100945.53
2023-03-19T00:46:37.269Z,100949.84
2023-03-19T00:49:04.737Z,100950.69
2023-03-19T00:51:33.610Z,100956.94
2023-03-19T00:54:01.118Z,100955.84
2023-03-19T00:56:28.616Z,100956.69
2023-03-19T00:58:57.647Z,100946.88
2023-03-19T01:01:25.276Z,100957.31
2023-03-19T01:03:52.807Z,100950.94
2023-03-19T01:06:20.297Z,100946.50
2023-03-19T01:08:49.265Z,100940.19
2023-03-19T01:11:17.938Z,100943.66
2023-03-19T01:13:45.423Z,100942.56
2023-03-19T01:16:12.882Z,100946.88
2023-03-19T01:18:40.516Z,100944.13
2023-03-19T01:21:08.476Z,100939.69
2023-03-19T01:23:35.949Z,100937.03
2023-03-19T01:26:04.854Z,100938.72
2023-03-19T01:28:32.513Z,100936.94
2023-03-19T01:31:01.107Z,100947.50
2023-03-19T01:33:28.682Z,100938.00
2023-03-19T01:35:58.019Z,100941.59
2023-03-19T01:38:25.536Z,100930.19
2023-03-19T01:40:53.200Z,100927.56
2023-03-19T01:43:22.714Z,100921.56
2023-03-19T01:45:51.459Z,100921.69
2023-03-19T01:48:25.472Z,100923.59
2023-03-19T01:50:55.252Z,100926.22
2023-03-19T01:53:24.280Z,100926.34
2023-03-19T01:55:51.798Z,100921.19
2023-03-19T01:58:19.278Z,100919.50
2023-03-19T02:00:48.298Z,100916.13
2023-03-19T02:03:15.837Z,100918.88
2023-03-19T02:05:43.387Z,100920.81
2023-03-19T02:08:11.867Z,100905.81
2023-03-19T02:10:39.406Z,100919.13
2023-03-19T02:13:07.154Z,100920.94
2023-03-19T02:15:34.629Z,100911.34
2023-03-19T02:18:03.502Z,100905.44
2023-03-19T02:20:32.126Z,100906.53
2023-03-19T02:23:01.911Z,100909.38
2023-03-19T02:25:29.855Z,100920.06
2023-03-19T02:27:58.793Z,100904.34
2023-03-19T02:30:27.188Z,100910.56
2023-03-19T02:32:54.823Z,100907.22
2023-03-19T02:35:22.410Z,100912.50
2023-03-19T02:37:49.925Z,100913.34
2023-03-19T02:40:18.352Z,100909.94
2023-03-19T02:42:46.028Z,100903.75
2023-03-19T02:45:14.945Z,100910.81
2023-03-19T02:47:42.625Z,100916.09
2023-03-19T02:50:10.669Z,100922.22
2023-03-19T02:52:38.173Z,100933.63
2023-03-19T02:55:06.499Z,100923.06
2023-03-19T02:57:34.025Z,100923.91
2023-03-19T03:00:01.545Z,100928.34
2023-03-19T03:02:31.004Z,100931.94
2023-03-19T03:04:58.653Z,100935.50
2023-03-19T03:07:27.097Z,100935.50
2023-03-19T03:09:54.569Z,100934.78
2023-03-19T03:12:22.791Z,100933.00
2023-03-19T03:14:50.295Z,100942.00
2023-03-19T03:17:17.941Z,100932.50
2023-03-19T03:19:47.725Z,100938.63
2023-03-19T03:22:15.205Z,100942.19
2023-03-19T03:24:42.719Z,100945.72
2023-03-19T03:27:10.318Z,100951.00
2023-03-19T03:29:37.955Z,100950.13
2023-03-19T03:32:06.644Z,100960.66
2023-03-19T03:34:34.138Z,100953.72
2023-03-19T03:37:03.046Z,100956.34
2023-03-19T03:39:30.554Z,100955.50
2023-03-19T03:41:58.044Z,100959.00
2023-03-19T03:44:25.487Z,100951.91
2023-03-19T03:46:53.319Z,100955.41
2023-03-19T03:49:21.006Z,100952.66
2023-03-19T03:51:48.502Z,100957.09
2023-03-19T03:54:17.665Z,100958.78
2023-03-19T03:56:45.201Z,100955.19
2023-03-19T03:59:12.768Z,100956.03
2023-03-19T04:01:40.285Z,100957.81
2023-03-19T04:04:07.768Z,100958.53
2023-03-19T04:06:35.966Z,100963.81
2023-03-19T04:09:03.494Z,100961.19
2023-03-19T04:11:32.299Z,100962.97
2023-03-19T04:13:59.884Z,100961.31
2023-03-19T04:16:28.686Z,100956.97
2023-03-19T04:18:56.265Z,100950.88
2023-03-19T04:21:23.727Z,100962.25
2023-03-19T04:23:51.238Z,100953.50
2023-03-19T04:26:18.791Z,100964.78
2023-03-19T04:28:47.675Z,100962.25
2023-03-19T04:31:15.492Z,100961.41
2023-03-19T04:33:43.326Z,100971.22
2023-03-19T04:36:10.885Z,100981.91
2023-03-19T04:38:38.694Z,100975.78
2023-03-19T04:41:06.307Z,100984.66
2023-03-19T04:43:33.877Z,100966.31
2023-03-19T04:46:02.708Z,100968.94
2023-03-19T04:48:30.232Z,100966.44
2023-03-19T04:50:58.214Z,100970.03
2023-03-19T04:53:25.783Z,100977.44
2023-03-19T04:55:53.236Z,100982.81
2023-03-19T04:58:20.696Z,100979.34
2023-03-19T05:00:48.223Z,100976.72
2023-03-19T05:03:17.157Z,100974.06
2023-03-19T05:05:44.687Z,100989.91
2023-03-19T05:08:13.629Z,100990.09
2023-03-19T05:10:41.176Z,100982.19
2023-03-19T05:13:08.676Z,100980.50
2023-03-19T05:15:36.277Z,100980.50
2023-03-19T05:18:03.798Z,100977.88
2023-03-19T05:20:32.844Z,100983.16
2023-03-19T05:23:00.597Z,100991.19
2023-03-19T05:25:28.089Z,100989.63
2023-03-19T05:27:55.565Z,100983.59
2023-03-19T05:30:23.651Z,100988.16
2023-03-19T05:32:51.227Z,100990.78
2023-03-19T05:35:19.422Z,100993.41
2023-03-19T05:37:48.410Z,100999.66
2023-03-19T05:40:16.557Z,101001.34
2023-03-19T05:42:44.052Z,101004.09
2023-03-19T05:45:12.358Z,101004.22
2023-03-19T05:47:40.408Z,101008.53
2023-03-19T05:50:08.287Z,101013.81
2023-03-19T05:52:35.854Z,101006.84
2023-03-19T05:55:04.996Z,101011.16
2023-03-19T05:57:32.550Z,101009.38
2023-03-19T06:00:00.058Z,101016.31
2023-03-19T06:02:27.588Z,101020.75
2023-03-19T06:04:55.047Z,101014.63
2023-03-19T06:07:22.532Z,101019.06
2023-03-19T06:09:50.050Z,101024.34
2023-03-19T06:12:18.920Z,101013.81
2023-03-19T06:14:47.261Z,101018.25
2023-03-19T06:17:14.808Z,101017.41
2023-03-19T06:19:42.357Z,101019.06
2023-03-19T06:22:09.837Z,101016.44
2023-03-19T06:24:37.446Z,101026.03
2023-03-19T06:27:05.350Z,101026.22
2023-03-19T06:29:34.276Z,101031.75
2023-03-19T06:32:01.889Z,101030.06
2023-03-19T06:34:29.484Z,101028.38
2023-03-19T06:36:57.090Z,101037.25
2023-03-19T06:39:24.599Z,101031.22
2023-03-19T06:41:52.206Z,101033.13
2023-03-19T06:44:20.126Z,101039.38
2023-03-19T06:46:49.086Z,101037.91
2023-03-19T06:49:16.551Z,101042.44
2023-03-19T06:51:44.373Z,101048.66
2023-03-19T06:54:11.866Z,101048.66
2023-03-19T06:56:39.356Z,101050.34
2023-03-19T06:59:06.899Z,101054.66
2023-03-19T07:01:34.421Z,101059.00
2023-03-19T07:04:03.350Z,101061.41
2023-03-19T07:06:31.095Z,101062.97
2023-03-19T07:08:58.520Z,101060.03
2023-03-19T07:11:25.974Z,101070.34
2023-03-19T07:13:53.478Z,101077.09
2023-03-19T07:16:21.040Z,101080.47
2023-03-19T07:18:48.587Z,101082.28
2023-03-19T07:21:17.781Z,101094.38
2023-03-19T07:23:46.896Z,101088.91
2023-03-19T07:26:14.390Z,101103.66
2023-03-19T07:28:41.895Z,101099.13
2023-03-19T07:31:09.500Z,101105.22
2023-03-19T07:33:37.016Z,101096.28
2023-03-19T07:36:04.649Z,101098.78
2023-03-19T07:38:33.508Z,101105.75
2023-03-19T07:41:03.012Z,101116.31
2023-03-19T07:43:30.876Z,101109.34
2023-03-19T07:45:58.469Z,101110.44
2023-03-19T07:48:26.061Z,101103.34
2023-03-19T07:50:54.219Z,101110.50
2023-03-19T07:53:21.789Z,101109.56
2023-03-19T07:55:50.742Z,101113.91
2023-03-19T07:58:18.289Z,101113.78
2023-03-19T08:00:46.229Z,101106.59
2023-03-19T08:03:13.803Z,101104.69
2023-03-19T08:05:41.356Z,101106.38
2023-03-19T08:08:08.996Z,101117.78
2023-03-19T08:10:38.290Z,101115.03
2023-03-19T08:13:07.717Z,101124.53
2023-03-19T08:15:35.218Z,101126.19
2023-03-19T08:18:03.501Z,101121.66
2023-03-19T08:20:30.983Z,101123.38
2023-03-19T08:22:58.683Z,101127.78
2023-03-19T08:25:27.053Z,101124.19
2023-03-19T08:27:54.623Z,101127.44
2023-03-19T08:30:23.598Z,101129.88
2023-03-19T08:32:51.270Z,101131.22
2023-03-19T08:35:19.608Z,101132.56
2023-03-19T08:37:47.092Z,101140.19
2023-03-19T08:40:14.742Z,101141.75
2023-03-19T08:42:45.125Z,101146.78
2023-03-19T08:45:13.635Z,101139.63
2023-03-19T08:47:42.624Z,101139.63
2023-03-19T08:50:10.651Z,101151.88
2023-03-19T08:52:38.170Z,101159.56
2023-03-19T08:55:06.176Z,101155.84
2023-03-19T08:57:33.709Z,101164.63
2023-03-19T09:00:01.192Z,101166.19
2023-03-19T09:02:28.694Z,101169.56
2023-03-19T09:04:57.547Z,101174.72
2023-03-19T09:07:25.031Z,101174.63
2023-03-19T09:09:52.583Z,101170.19
2023-03-19T09:12:20.063Z,101173.56
2023-03-19T09:14:47.601Z,101178.59
2023-03-19T09:17:15.653Z,101175.00
2023-03-19T09:19:43.151Z,101178.41
2023-03-19T09:22:11.984Z,101187.28
2023-03-19T09:24:40.699Z,101188.22
2023-03-19T09:27:08.419Z,101190.84
2023-03-19T09:29:36.073Z,101188.13
2023-03-19T09:32:03.636Z,101200.97
2023-03-19T09:34:31.554Z,101202.44
2023-03-19T09:36:59.019Z,101203.78
2023-03-19T09:39:27.909Z,101206.09
2023-03-19T09:42:03.860Z,101204.94
2023-03-19T09:44:32.180Z,101209.97
2023-03-19T09:47:00.285Z,101210.56
2023-03-19T09:49:28.687Z,101222.72
2023-03-19T09:51:56.587Z,101220.81
2023-03-19T09:54:28.512Z,101216.25
2023-03-19T09:56:56.312Z,101221.31
2023-03-19T09:59:24.061Z,101222.03
2023-03-19T10:01:54.257Z,101229.00
2023-03-19T10:04:42.699Z,101221.09
2023-03-19T10:07:14.005Z,101229.75
2023-03-19T10:09:45.775Z,101231.25
2023-03-19T10:12:17.383Z,101224.88
2023-03-19T10:14:58.834Z,101221.91
2023-03-19T10:17:28.195Z,101219.00
2023-03-19T10:19:56.776Z,101222.38
2023-03-19T10:22:25.883Z,101215.66
2023-03-19T10:24:54.777Z,101215.00
2023-03-19T10:27:23.068Z,101213.31
2023-03-19T10:29:51.166Z,101215.88
2023-03-19T10:32:19.514Z,101209.28
2023-03-19T10:34:48.760Z,101215.06
2023-03-19T10:37:16.577Z,101215.53
2023-03-19T10:39:45.489Z,101217.81
2023-03-19T10:42:21.907Z,101212.63
2023-03-19T10:44:49.987Z,101226.72
2023-03-19T10:47:19.995Z,101230.94
2023-03-19T10:49:47.488Z,101229.34
2023-03-19T10:52:23.006Z,101235.47
2023-03-19T10:54:54.340Z,101234.00
2023-03-19T10:57:25.735Z,101233.16
2023-03-19T10:59:53.265Z,101241.34
2023-03-19T11:02:22.563Z,101238.00
2023-03-19T11:04:50.023Z,101239.00
2023-03-19T11:07:19.345Z,101245.19
2023-03-19T11:09:47.137Z,101234.09
2023-03-19T11:12:18.021Z,101245.13
2023-03-19T11:14:47.536Z,101235.66
2023-03-19T11:17:19.028Z,101245.13
2023-03-19T11:19:50.834Z,101235.38
2023-03-19T11:22:21.061Z,101236.91
2023-03-19T11:24:52.811Z,101228.81
2023-03-19T11:27:20.560Z,101233.31
2023-03-19T11:29:49.495Z,101235.06
2023-03-19T11:32:29.549Z,101240.13
2023-03-19T11:34:58.983Z,101239.03
2023-03-19T11:37:28.709Z,101230.22
2023-03-19T11:39:59.631Z,101235.41
2023-03-19T11:42:31.423Z,101242.91
2023-03-19T11:45:03.914Z,101230.81
2023-03-19T11:47:32.483Z,101228.53
2023-03-19T11:50:03.103Z,101230.56
2023-03-19T11:52:31.121Z,101226.97
2023-03-19T11:55:02.576Z,101233.72
2023-03-19T11:57:33.526Z,101229.53
2023-03-19T12:00:07.746Z,101226.13
2023-03-19T12:02:42.488Z,101226.97
2023-03-19T12:05:13.867Z,101210.78
2023-03-19T12:07:42.606Z,101218.94
2023-03-19T12:10:18.300Z,101214.78
2023-03-19T12:12:47.585Z,101215.66
2023-03-19T12:15:17.510Z,101220.44
2023-03-19T12:17:47.644Z,101226.59
2023-03-19T12:20:26.821Z,101223.53
2023-03-19T12:22:57.949Z,101223.94
2023-03-19T12:25:27.756Z,101221.03
2023-03-19T12:27:55.941Z,101211.66
2023-03-19T12:30:26.874Z,101218.22
2023-03-19T12:32:58.238Z,101216.25
2023-03-19T12:35:26.297Z,101220.97
2023-03-19T12:37:55.393Z,101222.22
2023-03-19T12:40:25.836Z,101219.81
2023-03-19T12:42:53.324Z,101222.88
2023-03-19T12:45:24.362Z,101220.91
2023-03-19T12:47:53.260Z,101221.41
2023-03-19T12:50:21.597Z,101218.34
2023-03-19T12:52:50.894Z,101224.88
2023-03-19T12:55:19.654Z,101216.25
2023-03-19T12:57:47.752Z,101219.94
2023-03-19T13:00:17.727Z,101215.50
2023-03-19T13:02:45.509Z,101221.81
2023-03-19T13:05:23.166Z,101212.50
2023-03-19T13:07:52.100Z,101213.59
2023-03-19T13:10:20.074Z,101210.50
2023-03-19T13:12:47.606Z,101205.75
2023-03-19T13:15:15.521Z,101201.22
2023-03-19T13:17:45.898Z,101204.72
2023-03-19T13:20:20.843Z,101216.47
2023-03-19T13:22:51.112Z,101212.25
2023-03-19T13:25:19.122Z,101211.28
2023-03-19T13:27:54.018Z,101210.50
2023-03-19T13:30:21.996Z,101211.34
2023-03-19T13:32:50.786Z,101213.88
2023-03-19T13:35:28.130Z,101215.28
2023-03-19T13:37:57.038Z,101210.19
2023-03-19T13:40:44.205Z,101213.16
2023-03-19T13:43:35.534Z,101217.19
2023-03-19T13:46:06.631Z,101216.88
2023-03-19T13:48:38.071Z,101212.81
2023-03-19T13:51:10.748Z,101211.56
2023-03-19T13:53:39.332Z,101205.94
2023-03-19T13:56:15.690Z,101213.59
2023-03-19T13:58:52.141Z,101217.63
2023-03-19T14:01:40.509Z,101211.03
2023-03-19T14:04:08.487Z,101216.91
2023-03-19T14:06:40.040Z,101211.59
2023-03-19T14:09:08.593Z,101215.13
2023-03-19T14:11:37.012Z,101216.25
2023-03-19T14:14:05.418Z,101212.78
2023-03-19T14:16:33.344Z,101217.72
2023-03-19T14:19:01.516Z,101219.28
2023-03-19T14:21:46.613Z,101226.31
2023-03-19T14:27:24.257Z,101236.78
2023-03-19T14:29:51.726Z,101231.63
2023-03-19T14:32:19.636Z,101234.13
2023-03-19T14:34:47.189Z,101237.47
2023-03-19T14:37:18.111Z,101234.38
2023-03-19T14:39:47.039Z,101238.16
2023-03-19T14:42:17.763Z,101241.19
2023-03-19T14:45:18.149Z,101247.91
2023-03-19T14:47:52.042Z,101239.78
2023-03-19T14:50:46.366Z,101243.94
2023-03-19T14:53:14.927Z,101247.28
2023-03-19T14:55:43.876Z,101243.19
2023-03-19T14:58:11.521Z,101249.75
2023-03-19T15:00:40.619Z,101255.59
2023-03-19T15:03:09.974Z,101247.16
2023-03-19T15:05:37.865Z,101256.38
2023-03-19T15:08:06.820Z,101251.31
2023-03-19T15:10:36.350Z,101251.59
2023-03-19T15:13:24.953Z,101260.66
2023-03-19T15:15:58.079Z,101266.38
2023-03-19T15:18:25.608Z,101272.19
2023-03-19T15:20:54.521Z,101274.34
2023-03-19T15:23:27.394Z,101273.09
2023-03-19T15:25:57.004Z,101278.75
2023-03-19T15:28:24.929Z,101286.03
2023-03-19T15:31:06.207Z,101279.28
2023-03-19T15:33:44.811Z,101283.31
2023-03-19T15:36:14.127Z,101283.69
2023-03-19T15:38:42.332Z,101281.16
2023-03-19T15:41:09.885Z,101285.84
2023-03-19T15:43:37.708Z,101279.84
2023-03-19T15:46:06.803Z,101286.13
2023-03-19T15:48:35.827Z,101292.00
2023-03-19T15:51:03.443Z,101286.19
2023-03-19T15:53:32.343Z,101291.84
2023-03-19T15:56:01.055Z,101287.00
2023-03-19T15:58:29.251Z,101294.41
2023-03-19T16:00:56.702Z,101289.72
2023-03-19T16:03:27.982Z,101284.25
2023-03-19T16:05:59.974Z,101284.13
2023-03-19T16:08:27.649Z,101278.69
2023-03-19T16:10:55.284Z,101279.66
2023-03-19T16:13:29.951Z,101287.19
2023-03-19T16:16:00.809Z,101286.84
2023-03-19T16:18:31.789Z,101291.84
2023-03-19T16:21:01.251Z,101309.94
2023-03-19T16:23:30.037Z,101303.22
2023-03-19T16:25:57.939Z,101303.44
2023-03-19T16:28:25.769Z,101310.72
2023-03-19T16:30:53.334Z,101321.59
2023-03-19T16:33:20.955Z,101323.63
2023-03-19T16:35:50.171Z,101322.91
2023-03-19T16:38:18.271Z,101326.69
2023-03-19T16:40:46.704Z,101325.22
2023-03-19T16:43:16.177Z,101335.25
2023-03-19T16:45:44.145Z,101331.16
2023-03-19T16:48:11.674Z,101331.41
2023-03-19T16:50:40.247Z,101335.97
2023-03-19T16:53:14.085Z,101341.69
2023-03-19T16:55:42.071Z,101347.34
2023-03-19T16:58:11.938Z,101354.94
2023-03-19T17:00:39.471Z,101364.34
2023-03-19T17:03:07.726Z,101372.06
2023-03-19T17:05:35.519Z,101383.41
2023-03-19T17:08:03.185Z,101387.50
2023-03-19T17:10:32.947Z,101384.59
2023-03-19T17:13:00.713Z,101390.59
2023-03-19T17:15:28.722Z,101398.28
2023-03-19T17:17:57.252Z,101407.16
2023-03-19T17:20:25.231Z,101414.13
2023-03-19T17:22:52.716Z,101410.38
2023-03-19T17:25:20.343Z,101417.19
2023-03-19T17:27:49.332Z,101424.88
2023-03-19T17:30:17.112Z,101429.16
2023-03-19T17:32:47.264Z,101434.06
2023-03-19T17:35:15.349Z,101426.69
2023-03-19T17:37:42.915Z,101428.81
2023-03-19T17:40:19.982Z,101426.63
2023-03-19T17:42:49.366Z,101435.75
2023-03-19T17:45:17.057Z,101436.91
2023-03-19T17:47:44.585Z,101444.97
2023-03-19T17:50:15.317Z,101451.53
2023-03-19T17:52:45.271Z,101455.25
2023-03-19T17:55:15.975Z,101450.94
2023-03-19T17:57:43.456Z,101462.56
2023-03-19T18:00:13.206Z,101463.63
2023-03-19T18:02:41.275Z,101473.56
2023-03-19T18:05:11.602Z,101469.47
2023-03-19T18:07:39.099Z,101480.25
2023-03-19T18:10:06.914Z,101481.31
2023-03-19T18:12:34.366Z,101486.81
2023-03-19T18:15:01.817Z,101493.22
2023-03-19T18:17:30.701Z,101495.88
2023-03-19T18:19:58.203Z,101495.13
2023-03-19T18:22:27.285Z,101496.94
2023-03-19T18:24:54.843Z,101506.78
2023-03-19T18:27:24.565Z,101505.28
2023-03-19T18:29:52.208Z,101507.31
2023-03-19T18:32:22.388Z,101507.50
2023-03-19T18:34:51.311Z,101518.31
2023-03-19T18:37:18.885Z,101509.72
2023-03-19T18:39:46.357Z,101516.91
2023-03-19T18:42:14.546Z,101520.63
2023-03-19T18:44:42.136Z,101519.06
2023-03-19T18:47:11.545Z,101519.25
2023-03-19T18:49:39.057Z,101523.78
2023-03-19T18:52:07.871Z,101527.41
2023-03-19T18:54:35.363Z,101524.94
2023-03-19T18:57:02.783Z,101525.16
2023-03-19T18:59:31.315Z,101532.34
2023-03-19T19:02:00.723Z,101535.19
2023-03-19T19:04:29.817Z,101529.16
2023-03-19T19:06:57.498Z,101526.63
2023-03-19T19:09:26.418Z,101532.88
2023-03-19T19:11:54.429Z,101532.03
2023-03-19T19:14:22.756Z,101543.50
2023-03-19T19:16:50.391Z,101546.25
2023-03-19T19:19:20.067Z,101547.31
2023-03-19T19:21:47.609Z,101548.38
2023-03-19T19:24:15.242Z,101558.09
2023-03-19T19:26:44.332Z,101564.41
2023-03-19T19:29:12.285Z,101567.16
2023-03-19T19:31:40.238Z,101566.44
2023-03-19T19:34:07.768Z,101581.50
2023-03-19T19:36:35.436Z,101576.34
2023-03-19T19:39:03.231Z,101582.56
2023-03-19T19:41:30.782Z,101586.16
2023-03-19T19:44:03.083Z,101591.66
2023-03-19T19:46:31.265Z,101598.81
2023-03-19T19:48:59.002Z,101602.28
2023-03-19T19:51:27.055Z,101603.25
2023-03-19T19:53:54.602Z,101602.28
2023-03-19T19:56:22.701Z,101608.34
2023-03-19T19:58:50.631Z,101602.22
2023-03-19T20:01:20.310Z,101603.91
2023-03-19T20:03:47.880Z,101602.09
2023-03-19T20:06:15.403Z,101604.75
2023-03-19T20:08:43.176Z,101607.38
2023-03-19T20:11:20.220Z,101603.91
2023-03-19T20:13:51.409Z,101609.19
2023-03-19T20:16:20.776Z,101608.34
2023-03-19T20:18:48.393Z,101608.34
2023-03-19T20:21:16.207Z,101622.50
2023-03-19T20:23:43.987Z,101610.22
2023-03-19T20:26:12.512Z,101612.00
2023-03-19T20:28:40.034Z,101612.09
2023-03-19T20:31:07.549Z,101604.19
2023-03-19T20:33:37.336Z,101605.13
2023-03-19T20:36:05.679Z,101614.84
2023-03-19T20:38:36.596Z,101617.59
2023-03-19T20:41:04.560Z,101610.63
2023-03-19T20:43:33.278Z,101610.63
2023-03-19T20:46:01.858Z,101613.34
2023-03-19T20:48:30.671Z,101616.94
2023-03-19T20:50:59.673Z,101612.72
2023-03-19T20:53:27.247Z,101612.72
2023-03-19T20:55:54.794Z,101614.59
2023-03-19T20:58:23.833Z,101616.47
2023-03-19T21:00:52.933Z,101623.66
2023-03-19T21:03:22.258Z,101614.16
2023-03-19T21:05:50.210Z,101611.63
2023-03-19T21:08:20.536Z,101613.47
2023-03-19T21:10:48.546Z,101624.03
2023-03-19T21:13:16.663Z,101626.78
2023-03-19T21:15:44.478Z,101625.94
2023-03-19T21:18:12.098Z,101632.28
2023-03-19T21:20:40.998Z,101636.78
2023-03-19T21:23:09.541Z,101631.59
2023-03-19T21:25:38.346Z,101633.41
2023-03-19T21:28:06.807Z,101636.97
2023-03-19T21:30:41.911Z,101640.56
2023-03-19T21:33:10.920Z,101631.59
2023-03-19T21:35:38.580Z,101636.13
2023-03-19T21:38:06.260Z,101634.34
2023-03-19T21:40:33.806Z,101638.78
2023-03-19T21:43:02.752Z,101627.38
2023-03-19T21:45:31.723Z,101633.50
2023-03-19T21:48:01.075Z,101637.94
2023-03-19T21:50:28.584Z,101638.03
2023-03-19T21:53:01.110Z,101638.97
2023-03-19T21:55:29.683Z,101635.56
2023-03-19T21:57:57.701Z,101633.78
2023-03-19T22:00:27.035Z,101637.25
2023-03-19T22:02:54.526Z,101634.63
2023-03-19T22:05:23.644Z,101640.00
2023-03-19T22:07:51.266Z,101641.69
2023-03-19T22:10:19.581Z,101635.56
2023-03-19T22:12:47.180Z,101635.56
2023-03-19T22:15:19.532Z,101632.19
2023-03-19T22:17:49.844Z,101634.09
2023-03-19T22:20:17.656Z,101630.69
2023-03-19T22:22:45.285Z,101634.25
2023-03-19T22:25:13.552Z,101638.78
2023-03-19T22:27:41.432Z,101643.22
2023-03-19T22:30:11.907Z,101644.16
2023-03-19T22:32:39.477Z,101649.44
2023-03-19T22:35:10.452Z,101653.97
2023-03-19T22:37:37.991Z,101653.97
2023-03-19T22:40:06.032Z,101650.56
2023-03-19T22:42:33.494Z,101652.28
2023-03-19T22:45:00.916Z,101646.91
2023-03-19T22:47:28.374Z,101643.31
2023-03-19T22:49:55.858Z,101646.81
2023-03-19T22:52:24.764Z,101657.38
2023-03-19T22:54:53.714Z,101663.59
2023-03-19T22:57:21.240Z,101663.59
2023-03-19T22:59:48.906Z,101666.13
2023-03-19T23:02:16.379Z,101667.91
2023-03-19T23:04:43.842Z,101664.44
2023-03-19T23:07:11.970Z,101675.94
2023-03-19T23:09:41.745Z,101675.16
2023-03-19T23:14:36.677Z,101679.69
2023-03-19T23:17:06.459Z,101679.69
2023-03-19T23:19:35.076Z,101677.25
2023-03-19T23:22:03.555Z,101680.06
2023-03-19T23:24:31.410Z,101681.00
2023-03-19T23:27:01.010Z,101682.91
2023-03-19T23:29:29.968Z,101675.94
2023-03-19T23:31:58.438Z,101669.81
2023-03-19T23:34:26.622Z,101668.97
2023-03-19T23:36:54.489Z,101672.44
2023-03-19T23:39:22.061Z,101678.66
2023-03-19T23:41:50.014Z,101685.63
2023-03-19T23:44:19.417Z,101679.50
2023-03-19T23:46:47.277Z,101683.09
2023-03-19T23:49:16.009Z,101677.81
2023-03-19T23:51:43.680Z,101681.41
2023-03-19T23:54:16.896Z,101683.09
2023-03-19T23:56:44.323Z,101684.78
2023-03-19T23:59:11.815Z,101688.38
